<?xml version="1.0" encoding="UTF-8"?>
<gpx
  version="1.0"
  creator="GPSBabel - http://www.gpsbabel.org"
  xmlns:xsi="http://www.w3.org/2001/XMLSchema-instance"
  xmlns="http://www.topografix.com/GPX/1/0"
  xsi:schemaLocation="http://www.topografix.com/GPX/1/0 http://www.topografix.com/GPX/1/0/gpx.xsd">
<time>2011-04-14T20:13:42Z</time>
<bounds minlat="51.995427614" minlon="-1.761568683" maxlat="52.014035188" maxlon="-1.722620410"/>
<trk>
  <name>ACTIVE LOG</name>
<trkseg>
<trkpt lat="52.013644591" lon="-1.759100296">
  <ele>154.909546</ele>
  <time>2011-04-13T08:46:35Z</time>
</trkpt>
<trkpt lat="52.013688680" lon="-1.759136171">
  <ele>144.815796</ele>
  <time>2011-04-13T08:49:32Z</time>
</trkpt>
<trkpt lat="52.013722124" lon="-1.759152599">
  <ele>137.125244</ele>
  <time>2011-04-13T08:50:58Z</time>
</trkpt>
<trkpt lat="52.013810134" lon="-1.759376899">
  <ele>137.605835</ele>
  <time>2011-04-13T08:51:21Z</time>
</trkpt>
<trkpt lat="52.013720950" lon="-1.759382683">
  <ele>138.567261</ele>
  <time>2011-04-13T08:51:35Z</time>
</trkpt>
<trkpt lat="52.013705527" lon="-1.759408834">
  <ele>139.047852</ele>
  <time>2011-04-13T08:51:38Z</time>
</trkpt>
<trkpt lat="52.013768895" lon="-1.759376564">
  <ele>141.451050</ele>
  <time>2011-04-13T08:56:43Z</time>
</trkpt>
<trkpt lat="52.013835363" lon="-1.759414283">
  <ele>140.970459</ele>
  <time>2011-04-13T08:56:54Z</time>
</trkpt>
<trkpt lat="52.013795130" lon="-1.759300708">
  <ele>140.009155</ele>
  <time>2011-04-13T08:57:08Z</time>
</trkpt>
<trkpt lat="52.013665797" lon="-1.759088059">
  <ele>137.605835</ele>
  <time>2011-04-13T08:57:29Z</time>
</trkpt>
<trkpt lat="52.013652638" lon="-1.759067104">
  <ele>140.489868</ele>
  <time>2011-04-13T08:57:55Z</time>
</trkpt>
<trkpt lat="52.013751712" lon="-1.759210435">
  <ele>138.567261</ele>
  <time>2011-04-13T08:59:43Z</time>
</trkpt>
<trkpt lat="52.013845002" lon="-1.759340103">
  <ele>140.009155</ele>
  <time>2011-04-13T09:00:08Z</time>
</trkpt>
<trkpt lat="52.013846846" lon="-1.759543699">
  <ele>144.335205</ele>
  <time>2011-04-13T09:00:52Z</time>
</trkpt>
<trkpt lat="52.013797896" lon="-1.759618717">
  <ele>144.335205</ele>
  <time>2011-04-13T09:01:01Z</time>
</trkpt>
<trkpt lat="52.013670323" lon="-1.759833797">
  <ele>147.218994</ele>
  <time>2011-04-13T09:01:22Z</time>
</trkpt>
<trkpt lat="52.013552139" lon="-1.760039824">
  <ele>144.815796</ele>
  <time>2011-04-13T09:01:43Z</time>
</trkpt>
<trkpt lat="52.013344938" lon="-1.760288347">
  <ele>144.335205</ele>
  <time>2011-04-13T09:02:19Z</time>
</trkpt>
<trkpt lat="52.013041681" lon="-1.760415836">
  <ele>142.412476</ele>
  <time>2011-04-13T09:02:47Z</time>
</trkpt>
<trkpt lat="52.012988372" lon="-1.760404353">
  <ele>143.373657</ele>
  <time>2011-04-13T09:02:52Z</time>
</trkpt>
<trkpt lat="52.012897931" lon="-1.760420279">
  <ele>142.893066</ele>
  <time>2011-04-13T09:03:00Z</time>
</trkpt>
<trkpt lat="52.012755774" lon="-1.760375268">
  <ele>140.009155</ele>
  <time>2011-04-13T09:03:13Z</time>
</trkpt>
<trkpt lat="52.012505407" lon="-1.760325814">
  <ele>137.605835</ele>
  <time>2011-04-13T09:03:35Z</time>
</trkpt>
<trkpt lat="52.012200054" lon="-1.760309218">
  <ele>137.125244</ele>
  <time>2011-04-13T09:04:01Z</time>
</trkpt>
<trkpt lat="52.012028560" lon="-1.760430672">
  <ele>136.644653</ele>
  <time>2011-04-13T09:04:17Z</time>
</trkpt>
<trkpt lat="52.011994110" lon="-1.760481969">
  <ele>136.644653</ele>
  <time>2011-04-13T09:04:21Z</time>
</trkpt>
<trkpt lat="52.011754220" lon="-1.760535865">
  <ele>136.644653</ele>
  <time>2011-04-13T09:04:41Z</time>
</trkpt>
<trkpt lat="52.011580212" lon="-1.760354481">
  <ele>138.086548</ele>
  <time>2011-04-13T09:04:59Z</time>
</trkpt>
<trkpt lat="52.011394972" lon="-1.760218191">
  <ele>138.086548</ele>
  <time>2011-04-13T09:05:19Z</time>
</trkpt>
<trkpt lat="52.011187520" lon="-1.760257251">
  <ele>137.605835</ele>
  <time>2011-04-13T09:05:39Z</time>
</trkpt>
<trkpt lat="52.010970512" lon="-1.760417010">
  <ele>137.605835</ele>
  <time>2011-04-13T09:06:03Z</time>
</trkpt>
<trkpt lat="52.010807233" lon="-1.760497644">
  <ele>140.009155</ele>
  <time>2011-04-13T09:06:22Z</time>
</trkpt>
<trkpt lat="52.010734227" lon="-1.760551372">
  <ele>137.605835</ele>
  <time>2011-04-13T09:06:48Z</time>
</trkpt>
<trkpt lat="52.010684941" lon="-1.760557826">
  <ele>137.605835</ele>
  <time>2011-04-13T09:07:12Z</time>
</trkpt>
<trkpt lat="52.010535743" lon="-1.760803583">
  <ele>141.931763</ele>
  <time>2011-04-13T09:07:35Z</time>
</trkpt>
<trkpt lat="52.010399956" lon="-1.761000558">
  <ele>144.335205</ele>
  <time>2011-04-13T09:07:56Z</time>
</trkpt>
<trkpt lat="52.010304989" lon="-1.761157970">
  <ele>146.738403</ele>
  <time>2011-04-13T09:08:12Z</time>
</trkpt>
<trkpt lat="52.010182949" lon="-1.761382521">
  <ele>150.583618</ele>
  <time>2011-04-13T09:08:34Z</time>
</trkpt>
<trkpt lat="52.010093598" lon="-1.761529540">
  <ele>152.986938</ele>
  <time>2011-04-13T09:08:52Z</time>
</trkpt>
<trkpt lat="52.010079432" lon="-1.761545046">
  <ele>151.544922</ele>
  <time>2011-04-13T09:09:17Z</time>
</trkpt>
<trkpt lat="52.010085467" lon="-1.761533228">
  <ele>150.103027</ele>
  <time>2011-04-13T09:09:36Z</time>
</trkpt>
<trkpt lat="52.010071553" lon="-1.761568683">
  <ele>150.103027</ele>
  <time>2011-04-13T09:09:59Z</time>
</trkpt>
<trkpt lat="52.010119917" lon="-1.761514704">
  <ele>147.218994</ele>
  <time>2011-04-13T09:10:27Z</time>
</trkpt>
<trkpt lat="52.010197114" lon="-1.761394926">
  <ele>146.257812</ele>
  <time>2011-04-13T09:10:40Z</time>
</trkpt>
<trkpt lat="52.010374224" lon="-1.761083790">
  <ele>144.335205</ele>
  <time>2011-04-13T09:11:06Z</time>
</trkpt>
<trkpt lat="52.010541778" lon="-1.760903076">
  <ele>143.373657</ele>
  <time>2011-04-13T09:11:25Z</time>
</trkpt>
<trkpt lat="52.010752331" lon="-1.760449867">
  <ele>141.451050</ele>
  <time>2011-04-13T09:12:20Z</time>
</trkpt>
<trkpt lat="52.010493414" lon="-1.760256496">
  <ele>137.605835</ele>
  <time>2011-04-13T09:12:49Z</time>
</trkpt>
<trkpt lat="52.010293674" lon="-1.760153566">
  <ele>138.086548</ele>
  <time>2011-04-13T09:13:14Z</time>
</trkpt>
<trkpt lat="52.010263499" lon="-1.760109226">
  <ele>138.567261</ele>
  <time>2011-04-13T09:13:30Z</time>
</trkpt>
<trkpt lat="52.010142716" lon="-1.759986515">
  <ele>140.970459</ele>
  <time>2011-04-13T09:13:48Z</time>
</trkpt>
<trkpt lat="52.010085719" lon="-1.759892386">
  <ele>141.931763</ele>
  <time>2011-04-13T09:13:57Z</time>
</trkpt>
<trkpt lat="52.009951189" lon="-1.759725251">
  <ele>144.335205</ele>
  <time>2011-04-13T09:14:15Z</time>
</trkpt>
<trkpt lat="52.009810206" lon="-1.759496258">
  <ele>146.257812</ele>
  <time>2011-04-13T09:14:37Z</time>
</trkpt>
<trkpt lat="52.009696882" lon="-1.759271958">
  <ele>147.218994</ele>
  <time>2011-04-13T09:14:57Z</time>
</trkpt>
<trkpt lat="52.009601329" lon="-1.759013879">
  <ele>146.738403</ele>
  <time>2011-04-13T09:15:18Z</time>
</trkpt>
<trkpt lat="52.009577859" lon="-1.758928970">
  <ele>148.180420</ele>
  <time>2011-04-13T09:15:39Z</time>
</trkpt>
<trkpt lat="52.009576770" lon="-1.758877673">
  <ele>147.699707</ele>
  <time>2011-04-13T09:16:04Z</time>
</trkpt>
<trkpt lat="52.009502338" lon="-1.758765020">
  <ele>147.699707</ele>
  <time>2011-04-13T09:16:25Z</time>
</trkpt>
<trkpt lat="52.009384153" lon="-1.758630072">
  <ele>148.180420</ele>
  <time>2011-04-13T09:16:44Z</time>
</trkpt>
<trkpt lat="52.009214504" lon="-1.758444664">
  <ele>149.622314</ele>
  <time>2011-04-13T09:17:05Z</time>
</trkpt>
<trkpt lat="52.009045357" lon="-1.758253305">
  <ele>151.544922</ele>
  <time>2011-04-13T09:17:28Z</time>
</trkpt>
<trkpt lat="52.008883921" lon="-1.758112573">
  <ele>153.948364</ele>
  <time>2011-04-13T09:17:48Z</time>
</trkpt>
<trkpt lat="52.008723827" lon="-1.758012325">
  <ele>155.390259</ele>
  <time>2011-04-13T09:18:09Z</time>
</trkpt>
<trkpt lat="52.008663980" lon="-1.757986174">
  <ele>155.870972</ele>
  <time>2011-04-13T09:18:26Z</time>
</trkpt>
<trkpt lat="52.008590471" lon="-1.757925070">
  <ele>156.832153</ele>
  <time>2011-04-13T09:18:55Z</time>
</trkpt>
<trkpt lat="52.008515369" lon="-1.757837479">
  <ele>158.754761</ele>
  <time>2011-04-13T09:19:19Z</time>
</trkpt>
<trkpt lat="52.008388719" lon="-1.757772771">
  <ele>160.677490</ele>
  <time>2011-04-13T09:19:41Z</time>
</trkpt>
<trkpt lat="52.008271875" lon="-1.757734465">
  <ele>162.600098</ele>
  <time>2011-04-13T09:20:00Z</time>
</trkpt>
<trkpt lat="52.008163916" lon="-1.757647461">
  <ele>165.484131</ele>
  <time>2011-04-13T09:20:20Z</time>
</trkpt>
<trkpt lat="52.008127706" lon="-1.757580154">
  <ele>166.926025</ele>
  <time>2011-04-13T09:20:37Z</time>
</trkpt>
<trkpt lat="52.008131729" lon="-1.757527851">
  <ele>168.368042</ele>
  <time>2011-04-13T09:21:07Z</time>
</trkpt>
<trkpt lat="52.008064507" lon="-1.757347389">
  <ele>169.810059</ele>
  <time>2011-04-13T09:22:03Z</time>
</trkpt>
<trkpt lat="52.008022178" lon="-1.757110014">
  <ele>172.693970</ele>
  <time>2011-04-13T09:22:25Z</time>
</trkpt>
<trkpt lat="52.007983956" lon="-1.756976071">
  <ele>173.655273</ele>
  <time>2011-04-13T09:22:42Z</time>
</trkpt>
<trkpt lat="52.007885888" lon="-1.756877835">
  <ele>176.539307</ele>
  <time>2011-04-13T09:23:16Z</time>
</trkpt>
<trkpt lat="52.007761920" lon="-1.756730481">
  <ele>177.981201</ele>
  <time>2011-04-13T09:23:36Z</time>
</trkpt>
<trkpt lat="52.007713556" lon="-1.756688739">
  <ele>176.539307</ele>
  <time>2011-04-13T09:23:54Z</time>
</trkpt>
<trkpt lat="52.007621523" lon="-1.756614056">
  <ele>177.500610</ele>
  <time>2011-04-13T09:24:13Z</time>
</trkpt>
<trkpt lat="52.007471571" lon="-1.756505511">
  <ele>179.903809</ele>
  <time>2011-04-13T09:24:32Z</time>
</trkpt>
<trkpt lat="52.007349782" lon="-1.756382716">
  <ele>180.865234</ele>
  <time>2011-04-13T09:24:49Z</time>
</trkpt>
<trkpt lat="52.007222796" lon="-1.756243911">
  <ele>182.787842</ele>
  <time>2011-04-13T09:25:08Z</time>
</trkpt>
<trkpt lat="52.007166302" lon="-1.756199906">
  <ele>182.787842</ele>
  <time>2011-04-13T09:25:25Z</time>
</trkpt>
<trkpt lat="52.007036215" lon="-1.756122374">
  <ele>185.191162</ele>
  <time>2011-04-13T09:25:43Z</time>
</trkpt>
<trkpt lat="52.006888023" lon="-1.756009218">
  <ele>189.036377</ele>
  <time>2011-04-13T09:26:06Z</time>
</trkpt>
<trkpt lat="52.006784841" lon="-1.755933949">
  <ele>189.516968</ele>
  <time>2011-04-13T09:26:24Z</time>
</trkpt>
<trkpt lat="52.006673362" lon="-1.755829343">
  <ele>191.920288</ele>
  <time>2011-04-13T09:26:44Z</time>
</trkpt>
<trkpt lat="52.006533133" lon="-1.755710152">
  <ele>193.362305</ele>
  <time>2011-04-13T09:27:04Z</time>
</trkpt>
<trkpt lat="52.006435819" lon="-1.755639912">
  <ele>195.765625</ele>
  <time>2011-04-13T09:27:23Z</time>
</trkpt>
<trkpt lat="52.006321741" lon="-1.755526085">
  <ele>197.207520</ele>
  <time>2011-04-13T09:27:41Z</time>
</trkpt>
<trkpt lat="52.006232474" lon="-1.755481577">
  <ele>200.091675</ele>
  <time>2011-04-13T09:27:58Z</time>
</trkpt>
<trkpt lat="52.006102387" lon="-1.755371858">
  <ele>201.533569</ele>
  <time>2011-04-13T09:28:19Z</time>
</trkpt>
<trkpt lat="52.006022759" lon="-1.755314526">
  <ele>202.014282</ele>
  <time>2011-04-13T09:28:37Z</time>
</trkpt>
<trkpt lat="52.005926618" lon="-1.755258032">
  <ele>202.975464</ele>
  <time>2011-04-13T09:28:52Z</time>
</trkpt>
<trkpt lat="52.005829221" lon="-1.755191061">
  <ele>204.898071</ele>
  <time>2011-04-13T09:29:09Z</time>
</trkpt>
<trkpt lat="52.005827544" lon="-1.755157449">
  <ele>207.301392</ele>
  <time>2011-04-13T09:29:33Z</time>
</trkpt>
<trkpt lat="52.005682118" lon="-1.755062734">
  <ele>209.704834</ele>
  <time>2011-04-13T09:29:55Z</time>
</trkpt>
<trkpt lat="52.005523616" lon="-1.754982435">
  <ele>214.030640</ele>
  <time>2011-04-13T09:30:20Z</time>
</trkpt>
<trkpt lat="52.005400067" lon="-1.754899035">
  <ele>215.472656</ele>
  <time>2011-04-13T09:30:38Z</time>
</trkpt>
<trkpt lat="52.005299233" lon="-1.754809181">
  <ele>216.914673</ele>
  <time>2011-04-13T09:30:56Z</time>
</trkpt>
<trkpt lat="52.005244331" lon="-1.754709017">
  <ele>218.356567</ele>
  <time>2011-04-13T09:31:13Z</time>
</trkpt>
<trkpt lat="52.005150873" lon="-1.754505924">
  <ele>220.759888</ele>
  <time>2011-04-13T09:31:34Z</time>
</trkpt>
<trkpt lat="52.005067725" lon="-1.754345997">
  <ele>221.721191</ele>
  <time>2011-04-13T09:31:53Z</time>
</trkpt>
<trkpt lat="52.005002514" lon="-1.754409113">
  <ele>221.240601</ele>
  <time>2011-04-13T09:32:24Z</time>
</trkpt>
<trkpt lat="52.005053811" lon="-1.754365443">
  <ele>224.124512</ele>
  <time>2011-04-13T09:33:14Z</time>
</trkpt>
<trkpt lat="52.005081723" lon="-1.754293778">
  <ele>224.124512</ele>
  <time>2011-04-13T09:33:37Z</time>
</trkpt>
<trkpt lat="52.005088512" lon="-1.754264860">
  <ele>224.124512</ele>
  <time>2011-04-13T09:33:39Z</time>
</trkpt>
<trkpt lat="52.005143162" lon="-1.754003513">
  <ele>224.605225</ele>
  <time>2011-04-13T09:33:59Z</time>
</trkpt>
<trkpt lat="52.005203260" lon="-1.753586010">
  <ele>224.605225</ele>
  <time>2011-04-13T09:34:30Z</time>
</trkpt>
<trkpt lat="52.005382549" lon="-1.752771540">
  <ele>225.085938</ele>
  <time>2011-04-13T09:35:40Z</time>
</trkpt>
<trkpt lat="52.005232345" lon="-1.752658133">
  <ele>225.566528</ele>
  <time>2011-04-13T09:36:20Z</time>
</trkpt>
<trkpt lat="52.005095888" lon="-1.752522430">
  <ele>226.527832</ele>
  <time>2011-04-13T09:36:39Z</time>
</trkpt>
<trkpt lat="52.004942331" lon="-1.752356552">
  <ele>228.931152</ele>
  <time>2011-04-13T09:37:01Z</time>
</trkpt>
<trkpt lat="52.004762707" lon="-1.752136947">
  <ele>231.334351</ele>
  <time>2011-04-13T09:37:24Z</time>
</trkpt>
<trkpt lat="52.004586268" lon="-1.751943827">
  <ele>233.737671</ele>
  <time>2011-04-13T09:37:50Z</time>
</trkpt>
<trkpt lat="52.004499348" lon="-1.751831594">
  <ele>235.660278</ele>
  <time>2011-04-13T09:38:02Z</time>
</trkpt>
<trkpt lat="52.004402872" lon="-1.751691700">
  <ele>235.660278</ele>
  <time>2011-04-13T09:38:18Z</time>
</trkpt>
<trkpt lat="52.004232803" lon="-1.751477542">
  <ele>237.102295</ele>
  <time>2011-04-13T09:38:43Z</time>
</trkpt>
<trkpt lat="52.004084947" lon="-1.751314347">
  <ele>238.544312</ele>
  <time>2011-04-13T09:39:03Z</time>
</trkpt>
<trkpt lat="52.003943963" lon="-1.751184511">
  <ele>238.544312</ele>
  <time>2011-04-13T09:39:24Z</time>
</trkpt>
<trkpt lat="52.003804572" lon="-1.751046126">
  <ele>239.986206</ele>
  <time>2011-04-13T09:39:44Z</time>
</trkpt>
<trkpt lat="52.003658056" lon="-1.750885947">
  <ele>241.428223</ele>
  <time>2011-04-13T09:40:05Z</time>
</trkpt>
<trkpt lat="52.003558731" lon="-1.750753597">
  <ele>241.428223</ele>
  <time>2011-04-13T09:40:24Z</time>
</trkpt>
<trkpt lat="52.003445240" lon="-1.750614541">
  <ele>243.831543</ele>
  <time>2011-04-13T09:40:41Z</time>
</trkpt>
<trkpt lat="52.003325965" lon="-1.750475486">
  <ele>245.754150</ele>
  <time>2011-04-13T09:41:01Z</time>
</trkpt>
<trkpt lat="52.003191436" lon="-1.750314134">
  <ele>247.196045</ele>
  <time>2011-04-13T09:41:20Z</time>
</trkpt>
<trkpt lat="52.003055984" lon="-1.750174156">
  <ele>248.157593</ele>
  <time>2011-04-13T09:41:39Z</time>
</trkpt>
<trkpt lat="52.002875689" lon="-1.749967459">
  <ele>247.676758</ele>
  <time>2011-04-13T09:42:02Z</time>
</trkpt>
<trkpt lat="52.002707213" lon="-1.749769478">
  <ele>248.638184</ele>
  <time>2011-04-13T09:42:26Z</time>
</trkpt>
<trkpt lat="52.002477717" lon="-1.749497485">
  <ele>251.041382</ele>
  <time>2011-04-13T09:43:05Z</time>
</trkpt>
<trkpt lat="52.002266241" lon="-1.749284501">
  <ele>252.483398</ele>
  <time>2011-04-13T09:43:30Z</time>
</trkpt>
<trkpt lat="52.002107907" lon="-1.749144523">
  <ele>251.522095</ele>
  <time>2011-04-13T09:43:49Z</time>
</trkpt>
<trkpt lat="52.001915878" lon="-1.748922403">
  <ele>253.925415</ele>
  <time>2011-04-13T09:44:14Z</time>
</trkpt>
<trkpt lat="52.001708593" lon="-1.748748981">
  <ele>252.483398</ele>
  <time>2011-04-13T09:44:42Z</time>
</trkpt>
<trkpt lat="52.001652434" lon="-1.748717717">
  <ele>252.963989</ele>
  <time>2011-04-13T09:44:51Z</time>
</trkpt>
<trkpt lat="52.001479097" lon="-1.748497776">
  <ele>255.848022</ele>
  <time>2011-04-13T09:45:16Z</time>
</trkpt>
<trkpt lat="52.000939470" lon="-1.747750445">
  <ele>269.787109</ele>
  <time>2011-04-13T09:47:29Z</time>
</trkpt>
<trkpt lat="52.000826063" lon="-1.747424138">
  <ele>269.787109</ele>
  <time>2011-04-13T09:47:59Z</time>
</trkpt>
<trkpt lat="52.000133885" lon="-1.745755301">
  <ele>255.848022</ele>
  <time>2011-04-13T09:50:44Z</time>
</trkpt>
<trkpt lat="52.000055095" lon="-1.745591937">
  <ele>253.925415</ele>
  <time>2011-04-13T09:50:56Z</time>
</trkpt>
<trkpt lat="51.999902377" lon="-1.745270408">
  <ele>255.367310</ele>
  <time>2011-04-13T09:51:19Z</time>
</trkpt>
<trkpt lat="51.999775475" lon="-1.744970587">
  <ele>254.886597</ele>
  <time>2011-04-13T09:51:40Z</time>
</trkpt>
<trkpt lat="51.999663493" lon="-1.744702785">
  <ele>254.406006</ele>
  <time>2011-04-13T09:52:00Z</time>
</trkpt>
<trkpt lat="51.999559389" lon="-1.744448981">
  <ele>254.406006</ele>
  <time>2011-04-13T09:52:20Z</time>
</trkpt>
<trkpt lat="51.999149598" lon="-1.743499647">
  <ele>241.428223</ele>
  <time>2011-04-13T09:53:47Z</time>
</trkpt>
<trkpt lat="51.999007525" lon="-1.743087257">
  <ele>238.063599</ele>
  <time>2011-04-13T09:54:23Z</time>
</trkpt>
<trkpt lat="51.998906858" lon="-1.742875027">
  <ele>238.063599</ele>
  <time>2011-04-13T09:54:43Z</time>
</trkpt>
<trkpt lat="51.998744333" lon="-1.742504296">
  <ele>232.776489</ele>
  <time>2011-04-13T09:55:17Z</time>
</trkpt>
<trkpt lat="51.998744585" lon="-1.742442940">
  <ele>236.140991</ele>
  <time>2011-04-13T09:55:36Z</time>
</trkpt>
<trkpt lat="51.998744836" lon="-1.742323330">
  <ele>232.776489</ele>
  <time>2011-04-13T09:56:26Z</time>
</trkpt>
<trkpt lat="51.998741399" lon="-1.742158291">
  <ele>231.814941</ele>
  <time>2011-04-13T09:56:41Z</time>
</trkpt>
<trkpt lat="51.998617766" lon="-1.742083776">
  <ele>220.759888</ele>
  <time>2011-04-13T10:00:44Z</time>
</trkpt>
<trkpt lat="51.998647187" lon="-1.742146472">
  <ele>228.450439</ele>
  <time>2011-04-13T10:05:02Z</time>
</trkpt>
<trkpt lat="51.998772413" lon="-1.742018313">
  <ele>213.550049</ele>
  <time>2011-04-13T10:09:39Z</time>
</trkpt>
<trkpt lat="51.998786829" lon="-1.741839862">
  <ele>210.666016</ele>
  <time>2011-04-13T10:09:55Z</time>
</trkpt>
<trkpt lat="51.998710303" lon="-1.741516908">
  <ele>208.262817</ele>
  <time>2011-04-13T10:10:16Z</time>
</trkpt>
<trkpt lat="51.998640817" lon="-1.741220188">
  <ele>205.378784</ele>
  <time>2011-04-13T10:10:35Z</time>
</trkpt>
<trkpt lat="51.998529337" lon="-1.740886421">
  <ele>201.052856</ele>
  <time>2011-04-13T10:10:55Z</time>
</trkpt>
<trkpt lat="51.998415260" lon="-1.740622307">
  <ele>202.494873</ele>
  <time>2011-04-13T10:11:15Z</time>
</trkpt>
<trkpt lat="51.998290788" lon="-1.740354086">
  <ele>203.936890</ele>
  <time>2011-04-13T10:11:37Z</time>
</trkpt>
<trkpt lat="51.998237899" lon="-1.740161386">
  <ele>205.859497</ele>
  <time>2011-04-13T10:11:51Z</time>
</trkpt>
<trkpt lat="51.998186853" lon="-1.739845891">
  <ele>204.898071</ele>
  <time>2011-04-13T10:12:12Z</time>
</trkpt>
<trkpt lat="51.997918129" lon="-1.738508810">
  <ele>202.494873</ele>
  <time>2011-04-13T10:13:48Z</time>
</trkpt>
<trkpt lat="51.997810086" lon="-1.738164398">
  <ele>200.091675</ele>
  <time>2011-04-13T10:14:09Z</time>
</trkpt>
<trkpt lat="51.997583272" lon="-1.737518907">
  <ele>197.688232</ele>
  <time>2011-04-13T10:15:09Z</time>
</trkpt>
<trkpt lat="51.997383196" lon="-1.736867885">
  <ele>191.920288</ele>
  <time>2011-04-13T10:17:07Z</time>
</trkpt>
<trkpt lat="51.997400798" lon="-1.736763614">
  <ele>186.633179</ele>
  <time>2011-04-13T10:17:22Z</time>
</trkpt>
<trkpt lat="51.997319158" lon="-1.736524311">
  <ele>181.826416</ele>
  <time>2011-04-13T10:17:41Z</time>
</trkpt>
<trkpt lat="51.997223940" lon="-1.736260113">
  <ele>179.423218</ele>
  <time>2011-04-13T10:18:01Z</time>
</trkpt>
<trkpt lat="51.997183874" lon="-1.736142599">
  <ele>179.423218</ele>
  <time>2011-04-13T10:18:10Z</time>
</trkpt>
<trkpt lat="51.997100474" lon="-1.735897261">
  <ele>177.020020</ele>
  <time>2011-04-13T10:18:30Z</time>
</trkpt>
<trkpt lat="51.997033419" lon="-1.735709590">
  <ele>174.135864</ele>
  <time>2011-04-13T10:18:49Z</time>
</trkpt>
<trkpt lat="51.996968962" lon="-1.735485206">
  <ele>170.771362</ele>
  <time>2011-04-13T10:19:09Z</time>
</trkpt>
<trkpt lat="51.996922946" lon="-1.735387054">
  <ele>169.810059</ele>
  <time>2011-04-13T10:19:19Z</time>
</trkpt>
<trkpt lat="51.996848933" lon="-1.735176165">
  <ele>170.771362</ele>
  <time>2011-04-13T10:19:37Z</time>
</trkpt>
<trkpt lat="51.996788416" lon="-1.734967959">
  <ele>169.329468</ele>
  <time>2011-04-13T10:19:53Z</time>
</trkpt>
<trkpt lat="51.996697975" lon="-1.734805434">
  <ele>169.810059</ele>
  <time>2011-04-13T10:20:12Z</time>
</trkpt>
<trkpt lat="51.996664029" lon="-1.734690267">
  <ele>173.655273</ele>
  <time>2011-04-13T10:20:28Z</time>
</trkpt>
<trkpt lat="51.996584317" lon="-1.734614410">
  <ele>173.174683</ele>
  <time>2011-04-13T10:20:45Z</time>
</trkpt>
<trkpt lat="51.996477364" lon="-1.734550708">
  <ele>170.771362</ele>
  <time>2011-04-13T10:21:04Z</time>
</trkpt>
<trkpt lat="51.996440483" lon="-1.734378376">
  <ele>169.810059</ele>
  <time>2011-04-13T10:21:22Z</time>
</trkpt>
<trkpt lat="51.996352306" lon="-1.734100097">
  <ele>166.926025</ele>
  <time>2011-04-13T10:21:41Z</time>
</trkpt>
<trkpt lat="51.996245772" lon="-1.733835648">
  <ele>165.484131</ele>
  <time>2011-04-13T10:22:02Z</time>
</trkpt>
<trkpt lat="51.996181566" lon="-1.733665244">
  <ele>162.119507</ele>
  <time>2011-04-13T10:22:19Z</time>
</trkpt>
<trkpt lat="51.996075284" lon="-1.733443375">
  <ele>162.600098</ele>
  <time>2011-04-13T10:22:38Z</time>
</trkpt>
<trkpt lat="51.995955171" lon="-1.733170041">
  <ele>158.754761</ele>
  <time>2011-04-13T10:23:01Z</time>
</trkpt>
<trkpt lat="51.995945700" lon="-1.733138273">
  <ele>154.428955</ele>
  <time>2011-04-13T10:23:26Z</time>
</trkpt>
<trkpt lat="51.995873867" lon="-1.733005336">
  <ele>155.390259</ele>
  <time>2011-04-13T10:24:31Z</time>
</trkpt>
<trkpt lat="51.995713437" lon="-1.732690764">
  <ele>154.909546</ele>
  <time>2011-04-13T10:24:54Z</time>
</trkpt>
<trkpt lat="51.995560383" lon="-1.732395972">
  <ele>154.428955</ele>
  <time>2011-04-13T10:25:16Z</time>
</trkpt>
<trkpt lat="51.995520318" lon="-1.732195309">
  <ele>151.064209</ele>
  <time>2011-04-13T10:25:32Z</time>
</trkpt>
<trkpt lat="51.995472122" lon="-1.731853411">
  <ele>149.622314</ele>
  <time>2011-04-13T10:25:53Z</time>
</trkpt>
<trkpt lat="51.995427614" lon="-1.731587873">
  <ele>149.141602</ele>
  <time>2011-04-13T10:26:12Z</time>
</trkpt>
<trkpt lat="51.995434655" lon="-1.731442531">
  <ele>148.180420</ele>
  <time>2011-04-13T10:26:25Z</time>
</trkpt>
<trkpt lat="51.995473044" lon="-1.731350078">
  <ele>148.661011</ele>
  <time>2011-04-13T10:26:33Z</time>
</trkpt>
<trkpt lat="51.995719556" lon="-1.730851942">
  <ele>141.931763</ele>
  <time>2011-04-13T10:27:35Z</time>
</trkpt>
<trkpt lat="51.995820558" lon="-1.730730739">
  <ele>142.412476</ele>
  <time>2011-04-13T10:27:54Z</time>
</trkpt>
<trkpt lat="51.995955925" lon="-1.730478863">
  <ele>143.373657</ele>
  <time>2011-04-13T10:28:12Z</time>
</trkpt>
<trkpt lat="51.996069919" lon="-1.730234195">
  <ele>145.777100</ele>
  <time>2011-04-13T10:28:31Z</time>
</trkpt>
<trkpt lat="51.996111745" lon="-1.730160267">
  <ele>147.218994</ele>
  <time>2011-04-13T10:28:46Z</time>
</trkpt>
<trkpt lat="51.996184248" lon="-1.730028755">
  <ele>149.622314</ele>
  <time>2011-04-13T10:29:46Z</time>
</trkpt>
<trkpt lat="51.996288519" lon="-1.729818788">
  <ele>151.064209</ele>
  <time>2011-04-13T10:30:04Z</time>
</trkpt>
<trkpt lat="51.996404273" lon="-1.729626591">
  <ele>151.544922</ele>
  <time>2011-04-13T10:30:23Z</time>
</trkpt>
<trkpt lat="51.996492283" lon="-1.729347893">
  <ele>153.467651</ele>
  <time>2011-04-13T10:30:40Z</time>
</trkpt>
<trkpt lat="51.996585574" lon="-1.729166844">
  <ele>154.909546</ele>
  <time>2011-04-13T10:30:56Z</time>
</trkpt>
<trkpt lat="51.996720104" lon="-1.728922428">
  <ele>158.754761</ele>
  <time>2011-04-13T10:31:12Z</time>
</trkpt>
<trkpt lat="51.996823033" lon="-1.728802482">
  <ele>159.235474</ele>
  <time>2011-04-13T10:31:27Z</time>
</trkpt>
<trkpt lat="51.996934094" lon="-1.728677844">
  <ele>157.312866</ele>
  <time>2011-04-13T10:31:47Z</time>
</trkpt>
<trkpt lat="51.997030066" lon="-1.728558150">
  <ele>156.832153</ele>
  <time>2011-04-13T10:32:03Z</time>
</trkpt>
<trkpt lat="51.997141210" lon="-1.728362349">
  <ele>156.832153</ele>
  <time>2011-04-13T10:32:22Z</time>
</trkpt>
<trkpt lat="51.997245397" lon="-1.728139642">
  <ele>155.870972</ele>
  <time>2011-04-13T10:32:41Z</time>
</trkpt>
<trkpt lat="51.997354362" lon="-1.727928334">
  <ele>156.351562</ele>
  <time>2011-04-13T10:32:58Z</time>
</trkpt>
<trkpt lat="51.997361068" lon="-1.727915007">
  <ele>156.351562</ele>
  <time>2011-04-13T10:32:59Z</time>
</trkpt>
<trkpt lat="51.997407923" lon="-1.727842671">
  <ele>156.351562</ele>
  <time>2011-04-13T10:33:05Z</time>
</trkpt>
<trkpt lat="51.997522503" lon="-1.727635219">
  <ele>156.832153</ele>
  <time>2011-04-13T10:33:22Z</time>
</trkpt>
<trkpt lat="51.997660218" lon="-1.727401950">
  <ele>156.832153</ele>
  <time>2011-04-13T10:33:43Z</time>
</trkpt>
<trkpt lat="51.997772954" lon="-1.727194247">
  <ele>156.832153</ele>
  <time>2011-04-13T10:34:02Z</time>
</trkpt>
<trkpt lat="51.997866161" lon="-1.727057370">
  <ele>156.832153</ele>
  <time>2011-04-13T10:34:17Z</time>
</trkpt>
<trkpt lat="51.997967750" lon="-1.726856205">
  <ele>157.793579</ele>
  <time>2011-04-13T10:34:34Z</time>
</trkpt>
<trkpt lat="51.998084426" lon="-1.726744641">
  <ele>157.312866</ele>
  <time>2011-04-13T10:34:52Z</time>
</trkpt>
<trkpt lat="51.998213088" lon="-1.726583374">
  <ele>157.793579</ele>
  <time>2011-04-13T10:35:10Z</time>
</trkpt>
<trkpt lat="51.998321718" lon="-1.726426129">
  <ele>157.793579</ele>
  <time>2011-04-13T10:35:25Z</time>
</trkpt>
<trkpt lat="51.998466892" lon="-1.726246756">
  <ele>157.793579</ele>
  <time>2011-04-13T10:35:44Z</time>
</trkpt>
<trkpt lat="51.998633189" lon="-1.726080627">
  <ele>157.312866</ele>
  <time>2011-04-13T10:36:05Z</time>
</trkpt>
<trkpt lat="51.998755649" lon="-1.725940314">
  <ele>157.312866</ele>
  <time>2011-04-13T10:36:20Z</time>
</trkpt>
<trkpt lat="51.998861931" lon="-1.725841827">
  <ele>156.832153</ele>
  <time>2011-04-13T10:36:33Z</time>
</trkpt>
<trkpt lat="51.998902081" lon="-1.725804695">
  <ele>156.351562</ele>
  <time>2011-04-13T10:36:38Z</time>
</trkpt>
<trkpt lat="51.999041136" lon="-1.725705369">
  <ele>154.909546</ele>
  <time>2011-04-13T10:36:54Z</time>
</trkpt>
<trkpt lat="51.999129230" lon="-1.725660778">
  <ele>155.390259</ele>
  <time>2011-04-13T10:37:14Z</time>
</trkpt>
<trkpt lat="51.999135517" lon="-1.725597410">
  <ele>153.948364</ele>
  <time>2011-04-13T10:37:31Z</time>
</trkpt>
<trkpt lat="51.999240458" lon="-1.725492972">
  <ele>152.506348</ele>
  <time>2011-04-13T10:38:23Z</time>
</trkpt>
<trkpt lat="51.999342130" lon="-1.725335727">
  <ele>153.467651</ele>
  <time>2011-04-13T10:38:36Z</time>
</trkpt>
<trkpt lat="51.999456543" lon="-1.725179070">
  <ele>153.467651</ele>
  <time>2011-04-13T10:38:52Z</time>
</trkpt>
<trkpt lat="51.999583362" lon="-1.725040433">
  <ele>153.467651</ele>
  <time>2011-04-13T10:39:09Z</time>
</trkpt>
<trkpt lat="51.999646142" lon="-1.724974886">
  <ele>153.467651</ele>
  <time>2011-04-13T10:39:20Z</time>
</trkpt>
<trkpt lat="51.999756616" lon="-1.724880925">
  <ele>153.467651</ele>
  <time>2011-04-13T10:39:35Z</time>
</trkpt>
<trkpt lat="51.999852505" lon="-1.724762154">
  <ele>154.428955</ele>
  <time>2011-04-13T10:39:52Z</time>
</trkpt>
<trkpt lat="51.999899946" lon="-1.724663247">
  <ele>153.948364</ele>
  <time>2011-04-13T10:40:05Z</time>
</trkpt>
<trkpt lat="51.999906316" lon="-1.724627205">
  <ele>152.025757</ele>
  <time>2011-04-13T10:40:20Z</time>
</trkpt>
<trkpt lat="52.000019388" lon="-1.724501979">
  <ele>154.428955</ele>
  <time>2011-04-13T10:41:31Z</time>
</trkpt>
<trkpt lat="52.000035565" lon="-1.724500638">
  <ele>154.428955</ele>
  <time>2011-04-13T10:41:33Z</time>
</trkpt>
<trkpt lat="52.000167329" lon="-1.724477001">
  <ele>152.986938</ele>
  <time>2011-04-13T10:41:52Z</time>
</trkpt>
<trkpt lat="52.000421720" lon="-1.724446575">
  <ele>155.870972</ele>
  <time>2011-04-13T10:42:24Z</time>
</trkpt>
<trkpt lat="52.000550801" lon="-1.724378765">
  <ele>156.832153</ele>
  <time>2011-04-13T10:42:39Z</time>
</trkpt>
<trkpt lat="52.000685079" lon="-1.724236776">
  <ele>157.793579</ele>
  <time>2011-04-13T10:42:57Z</time>
</trkpt>
<trkpt lat="52.000793708" lon="-1.724149017">
  <ele>157.793579</ele>
  <time>2011-04-13T10:43:12Z</time>
</trkpt>
<trkpt lat="52.000939973" lon="-1.724011470">
  <ele>157.793579</ele>
  <time>2011-04-13T10:43:30Z</time>
</trkpt>
<trkpt lat="52.001093864" lon="-1.723860093">
  <ele>157.793579</ele>
  <time>2011-04-13T10:43:49Z</time>
</trkpt>
<trkpt lat="52.001261167" lon="-1.723705280">
  <ele>159.716187</ele>
  <time>2011-04-13T10:44:08Z</time>
</trkpt>
<trkpt lat="52.001407851" lon="-1.723591286">
  <ele>158.754761</ele>
  <time>2011-04-13T10:44:25Z</time>
</trkpt>
<trkpt lat="52.001544811" lon="-1.723559099">
  <ele>157.793579</ele>
  <time>2011-04-13T10:44:41Z</time>
</trkpt>
<trkpt lat="52.001646902" lon="-1.723603439">
  <ele>156.351562</ele>
  <time>2011-04-13T10:44:57Z</time>
</trkpt>
<trkpt lat="52.001729297" lon="-1.723669237">
  <ele>156.351562</ele>
  <time>2011-04-13T10:45:15Z</time>
</trkpt>
<trkpt lat="52.001904730" lon="-1.723605116">
  <ele>157.793579</ele>
  <time>2011-04-13T10:45:32Z</time>
</trkpt>
<trkpt lat="52.002085024" lon="-1.723420043">
  <ele>158.274170</ele>
  <time>2011-04-13T10:45:53Z</time>
</trkpt>
<trkpt lat="52.002290213" lon="-1.723268331">
  <ele>158.274170</ele>
  <time>2011-04-13T10:46:17Z</time>
</trkpt>
<trkpt lat="52.002350228" lon="-1.723249639">
  <ele>158.274170</ele>
  <time>2011-04-13T10:46:24Z</time>
</trkpt>
<trkpt lat="52.002377637" lon="-1.723239916">
  <ele>157.312866</ele>
  <time>2011-04-13T10:46:27Z</time>
</trkpt>
<trkpt lat="52.002447626" lon="-1.723227511">
  <ele>158.754761</ele>
  <time>2011-04-13T10:46:33Z</time>
</trkpt>
<trkpt lat="52.002622137" lon="-1.723093903">
  <ele>155.390259</ele>
  <time>2011-04-13T10:46:52Z</time>
</trkpt>
<trkpt lat="52.002808131" lon="-1.722976976">
  <ele>157.793579</ele>
  <time>2011-04-13T10:47:10Z</time>
</trkpt>
<trkpt lat="52.003034191" lon="-1.722812691">
  <ele>158.274170</ele>
  <time>2011-04-13T10:47:33Z</time>
</trkpt>
<trkpt lat="52.003084315" lon="-1.722764662">
  <ele>157.312866</ele>
  <time>2011-04-13T10:47:40Z</time>
</trkpt>
<trkpt lat="52.003170732" lon="-1.722722334">
  <ele>158.274170</ele>
  <time>2011-04-13T10:47:51Z</time>
</trkpt>
<trkpt lat="52.003217168" lon="-1.722620410">
  <ele>159.235474</ele>
  <time>2011-04-13T10:48:09Z</time>
</trkpt>
<trkpt lat="52.003316326" lon="-1.722680759">
  <ele>157.793579</ele>
  <time>2011-04-13T10:48:35Z</time>
</trkpt>
<trkpt lat="52.003471559" lon="-1.722924338">
  <ele>158.754761</ele>
  <time>2011-04-13T10:49:01Z</time>
</trkpt>
<trkpt lat="52.003587564" lon="-1.723291046">
  <ele>159.235474</ele>
  <time>2011-04-13T10:49:31Z</time>
</trkpt>
<trkpt lat="52.003604580" lon="-1.723535965">
  <ele>160.196899</ele>
  <time>2011-04-13T10:49:51Z</time>
</trkpt>
<trkpt lat="52.003672222" lon="-1.724472643">
  <ele>157.312866</ele>
  <time>2011-04-13T10:51:48Z</time>
</trkpt>
<trkpt lat="52.003271651" lon="-1.725860099">
  <ele>161.158203</ele>
  <time>2011-04-13T10:53:55Z</time>
</trkpt>
<trkpt lat="52.003312973" lon="-1.725847862">
  <ele>161.158203</ele>
  <time>2011-04-13T10:53:59Z</time>
</trkpt>
<trkpt lat="52.003224880" lon="-1.726143408">
  <ele>162.119507</ele>
  <time>2011-04-13T10:54:09Z</time>
</trkpt>
<trkpt lat="52.003172576" lon="-1.726609441">
  <ele>163.080811</ele>
  <time>2011-04-13T10:54:40Z</time>
</trkpt>
<trkpt lat="52.003074005" lon="-1.726782947">
  <ele>163.561523</ele>
  <time>2011-04-13T10:54:54Z</time>
</trkpt>
<trkpt lat="52.002908127" lon="-1.727381079">
  <ele>169.329468</ele>
  <time>2011-04-13T10:55:38Z</time>
</trkpt>
<trkpt lat="52.003021032" lon="-1.727877707">
  <ele>171.252075</ele>
  <time>2011-04-13T10:56:40Z</time>
</trkpt>
<trkpt lat="52.003029916" lon="-1.728066551">
  <ele>174.135864</ele>
  <time>2011-04-13T10:56:56Z</time>
</trkpt>
<trkpt lat="52.002993371" lon="-1.728400235">
  <ele>175.097290</ele>
  <time>2011-04-13T10:57:18Z</time>
</trkpt>
<trkpt lat="52.002961017" lon="-1.728589666">
  <ele>178.461914</ele>
  <time>2011-04-13T10:57:35Z</time>
</trkpt>
<trkpt lat="52.003009213" lon="-1.728911950">
  <ele>181.826416</ele>
  <time>2011-04-13T10:59:40Z</time>
</trkpt>
<trkpt lat="52.002809808" lon="-1.728872723">
  <ele>202.014282</ele>
  <time>2011-04-13T11:07:54Z</time>
</trkpt>
<trkpt lat="52.002949199" lon="-1.728733080">
  <ele>179.903809</ele>
  <time>2011-04-13T11:08:04Z</time>
</trkpt>
<trkpt lat="52.002984989" lon="-1.728469302">
  <ele>179.423218</ele>
  <time>2011-04-13T11:08:24Z</time>
</trkpt>
<trkpt lat="52.003006782" lon="-1.728227987">
  <ele>185.191162</ele>
  <time>2011-04-13T11:08:44Z</time>
</trkpt>
<trkpt lat="52.003069144" lon="-1.727934955">
  <ele>182.787842</ele>
  <time>2011-04-13T11:09:07Z</time>
</trkpt>
<trkpt lat="52.003240554" lon="-1.727687773">
  <ele>183.268433</ele>
  <time>2011-04-13T11:09:30Z</time>
</trkpt>
<trkpt lat="52.003346585" lon="-1.727618622">
  <ele>184.229858</ele>
  <time>2011-04-13T11:09:42Z</time>
</trkpt>
<trkpt lat="52.003523611" lon="-1.727487530">
  <ele>184.229858</ele>
  <time>2011-04-13T11:10:01Z</time>
</trkpt>
<trkpt lat="52.003773307" lon="-1.727310504">
  <ele>184.710571</ele>
  <time>2011-04-13T11:10:25Z</time>
</trkpt>
<trkpt lat="52.003989225" lon="-1.727203634">
  <ele>186.633179</ele>
  <time>2011-04-13T11:10:48Z</time>
</trkpt>
<trkpt lat="52.004044965" lon="-1.727187541">
  <ele>186.152466</ele>
  <time>2011-04-13T11:11:07Z</time>
</trkpt>
<trkpt lat="52.004233725" lon="-1.727116211">
  <ele>185.671753</ele>
  <time>2011-04-13T11:11:27Z</time>
</trkpt>
<trkpt lat="52.004392730" lon="-1.727009677">
  <ele>186.633179</ele>
  <time>2011-04-13T11:11:46Z</time>
</trkpt>
<trkpt lat="52.004580988" lon="-1.726842039">
  <ele>186.152466</ele>
  <time>2011-04-13T11:12:10Z</time>
</trkpt>
<trkpt lat="52.004677296" lon="-1.726779343">
  <ele>187.594360</ele>
  <time>2011-04-13T11:12:29Z</time>
</trkpt>
<trkpt lat="52.004797660" lon="-1.726791496">
  <ele>186.633179</ele>
  <time>2011-04-13T11:12:48Z</time>
</trkpt>
<trkpt lat="52.004886927" lon="-1.726989896">
  <ele>188.075073</ele>
  <time>2011-04-13T11:13:11Z</time>
</trkpt>
<trkpt lat="52.005008213" lon="-1.727483422">
  <ele>189.036377</ele>
  <time>2011-04-13T11:13:57Z</time>
</trkpt>
<trkpt lat="52.005118771" lon="-1.728045513">
  <ele>192.881714</ele>
  <time>2011-04-13T11:15:00Z</time>
</trkpt>
<trkpt lat="52.005211223" lon="-1.728271573">
  <ele>195.284912</ele>
  <time>2011-04-13T11:15:21Z</time>
</trkpt>
<trkpt lat="52.005248690" lon="-1.728464105">
  <ele>197.207520</ele>
  <time>2011-04-13T11:15:39Z</time>
</trkpt>
<trkpt lat="52.005307363" lon="-1.728670887">
  <ele>199.130127</ele>
  <time>2011-04-13T11:16:00Z</time>
</trkpt>
<trkpt lat="52.005433930" lon="-1.729322915">
  <ele>208.743408</ele>
  <time>2011-04-13T11:17:06Z</time>
</trkpt>
<trkpt lat="52.005437367" lon="-1.729457277">
  <ele>209.224121</ele>
  <time>2011-04-13T11:17:30Z</time>
</trkpt>
<trkpt lat="52.005335778" lon="-1.729943762">
  <ele>212.588623</ele>
  <time>2011-04-13T11:18:26Z</time>
</trkpt>
<trkpt lat="52.005370647" lon="-1.730441396">
  <ele>210.185425</ele>
  <time>2011-04-13T11:18:57Z</time>
</trkpt>
<trkpt lat="52.005359080" lon="-1.730674581">
  <ele>212.588623</ele>
  <time>2011-04-13T11:19:15Z</time>
</trkpt>
<trkpt lat="52.005392691" lon="-1.730990075">
  <ele>215.953247</ele>
  <time>2011-04-13T11:19:44Z</time>
</trkpt>
<trkpt lat="52.005430745" lon="-1.731184200">
  <ele>217.395386</ele>
  <time>2011-04-13T11:20:02Z</time>
</trkpt>
<trkpt lat="52.005614728" lon="-1.731838911">
  <ele>218.356567</ele>
  <time>2011-04-13T11:21:00Z</time>
</trkpt>
<trkpt lat="52.005815055" lon="-1.732266220">
  <ele>222.682495</ele>
  <time>2011-04-13T11:21:43Z</time>
</trkpt>
<trkpt lat="52.005881105" lon="-1.732304358">
  <ele>224.124512</ele>
  <time>2011-04-13T11:21:59Z</time>
</trkpt>
<trkpt lat="52.006036840" lon="-1.732550702">
  <ele>227.969727</ele>
  <time>2011-04-13T11:22:36Z</time>
</trkpt>
<trkpt lat="52.006241275" lon="-1.732724878">
  <ele>232.295776</ele>
  <time>2011-04-13T11:23:05Z</time>
</trkpt>
<trkpt lat="52.006337751" lon="-1.732810792">
  <ele>232.776489</ele>
  <time>2011-04-13T11:23:20Z</time>
</trkpt>
<trkpt lat="52.006484769" lon="-1.733005001">
  <ele>233.737671</ele>
  <time>2011-04-13T11:23:44Z</time>
</trkpt>
<trkpt lat="52.006619215" lon="-1.733183200">
  <ele>231.334351</ele>
  <time>2011-04-13T11:24:04Z</time>
</trkpt>
<trkpt lat="52.006686270" lon="-1.733317981">
  <ele>233.737671</ele>
  <time>2011-04-13T11:24:16Z</time>
</trkpt>
<trkpt lat="52.006780818" lon="-1.733472711">
  <ele>239.024902</ele>
  <time>2011-04-13T11:24:36Z</time>
</trkpt>
<trkpt lat="52.006874947" lon="-1.733624424">
  <ele>241.428223</ele>
  <time>2011-04-13T11:24:52Z</time>
</trkpt>
<trkpt lat="52.006989863" lon="-1.733932542">
  <ele>242.870239</ele>
  <time>2011-04-13T11:25:14Z</time>
</trkpt>
<trkpt lat="52.007034538" lon="-1.734130607">
  <ele>241.428223</ele>
  <time>2011-04-13T11:25:32Z</time>
</trkpt>
<trkpt lat="52.007056750" lon="-1.734188777">
  <ele>239.986206</ele>
  <time>2011-04-13T11:25:54Z</time>
</trkpt>
<trkpt lat="52.007099247" lon="-1.734376197">
  <ele>238.063599</ele>
  <time>2011-04-13T11:26:11Z</time>
</trkpt>
<trkpt lat="52.007136127" lon="-1.734678867">
  <ele>237.582886</ele>
  <time>2011-04-13T11:26:32Z</time>
</trkpt>
<trkpt lat="52.007140066" lon="-1.734710048">
  <ele>237.102295</ele>
  <time>2011-04-13T11:26:34Z</time>
</trkpt>
<trkpt lat="52.007180803" lon="-1.735009366">
  <ele>237.102295</ele>
  <time>2011-04-13T11:26:54Z</time>
</trkpt>
<trkpt lat="52.007223802" lon="-1.735301726">
  <ele>235.660278</ele>
  <time>2011-04-13T11:27:14Z</time>
</trkpt>
<trkpt lat="52.007261185" lon="-1.735571037">
  <ele>235.179688</ele>
  <time>2011-04-13T11:27:32Z</time>
</trkpt>
<trkpt lat="52.007285492" lon="-1.735829200">
  <ele>232.776489</ele>
  <time>2011-04-13T11:27:50Z</time>
</trkpt>
<trkpt lat="52.007327151" lon="-1.736112508">
  <ele>231.814941</ele>
  <time>2011-04-13T11:28:09Z</time>
</trkpt>
<trkpt lat="52.007362522" lon="-1.736410736">
  <ele>230.373047</ele>
  <time>2011-04-13T11:28:29Z</time>
</trkpt>
<trkpt lat="52.007425303" lon="-1.736695134">
  <ele>232.295776</ele>
  <time>2011-04-13T11:28:49Z</time>
</trkpt>
<trkpt lat="52.007476265" lon="-1.737254123">
  <ele>234.699097</ele>
  <time>2011-04-13T11:29:24Z</time>
</trkpt>
<trkpt lat="52.007601071" lon="-1.738603777">
  <ele>238.544312</ele>
  <time>2011-04-13T11:31:20Z</time>
</trkpt>
<trkpt lat="52.007771811" lon="-1.739161341">
  <ele>238.544312</ele>
  <time>2011-04-13T11:31:51Z</time>
</trkpt>
<trkpt lat="52.007965181" lon="-1.739763581">
  <ele>232.776489</ele>
  <time>2011-04-13T11:32:25Z</time>
</trkpt>
<trkpt lat="52.008016562" lon="-1.740120985">
  <ele>233.737671</ele>
  <time>2011-04-13T11:32:45Z</time>
</trkpt>
<trkpt lat="52.008053862" lon="-1.740514516">
  <ele>231.334351</ele>
  <time>2011-04-13T11:33:09Z</time>
</trkpt>
<trkpt lat="52.008091748" lon="-1.740854653">
  <ele>232.295776</ele>
  <time>2011-04-13T11:33:30Z</time>
</trkpt>
<trkpt lat="52.008125192" lon="-1.741072331">
  <ele>234.218384</ele>
  <time>2011-04-13T11:33:51Z</time>
</trkpt>
<trkpt lat="52.008145476" lon="-1.741128909">
  <ele>233.257080</ele>
  <time>2011-04-13T11:34:18Z</time>
</trkpt>
<trkpt lat="52.008149751" lon="-1.741271485">
  <ele>233.257080</ele>
  <time>2011-04-13T11:34:39Z</time>
</trkpt>
<trkpt lat="52.008155534" lon="-1.741326890">
  <ele>232.776489</ele>
  <time>2011-04-13T11:35:02Z</time>
</trkpt>
<trkpt lat="52.008112116" lon="-1.741196300">
  <ele>232.295776</ele>
  <time>2011-04-13T11:35:18Z</time>
</trkpt>
<trkpt lat="52.008055370" lon="-1.741346587">
  <ele>231.334351</ele>
  <time>2011-04-13T11:35:37Z</time>
</trkpt>
<trkpt lat="52.008071883" lon="-1.741605588">
  <ele>232.776489</ele>
  <time>2011-04-13T11:35:55Z</time>
</trkpt>
<trkpt lat="52.008029219" lon="-1.741803569">
  <ele>233.737671</ele>
  <time>2011-04-13T11:36:14Z</time>
</trkpt>
<trkpt lat="52.007704923" lon="-1.742990111">
  <ele>231.814941</ele>
  <time>2011-04-13T11:37:35Z</time>
</trkpt>
<trkpt lat="52.007762255" lon="-1.743247519">
  <ele>231.814941</ele>
  <time>2011-04-13T11:37:56Z</time>
</trkpt>
<trkpt lat="52.007840794" lon="-1.744168439">
  <ele>233.737671</ele>
  <time>2011-04-13T11:38:45Z</time>
</trkpt>
<trkpt lat="52.007837357" lon="-1.744247648">
  <ele>233.737671</ele>
  <time>2011-04-13T11:38:50Z</time>
</trkpt>
<trkpt lat="52.007795364" lon="-1.744529866">
  <ele>233.737671</ele>
  <time>2011-04-13T11:39:10Z</time>
</trkpt>
<trkpt lat="52.007781953" lon="-1.744859191">
  <ele>234.699097</ele>
  <time>2011-04-13T11:39:33Z</time>
</trkpt>
<trkpt lat="52.007765776" lon="-1.745350874">
  <ele>234.218384</ele>
  <time>2011-04-13T11:40:03Z</time>
</trkpt>
<trkpt lat="52.007725207" lon="-1.745818668">
  <ele>230.853760</ele>
  <time>2011-04-13T11:40:33Z</time>
</trkpt>
<trkpt lat="52.007637532" lon="-1.746126200">
  <ele>231.814941</ele>
  <time>2011-04-13T11:41:09Z</time>
</trkpt>
<trkpt lat="52.007605681" lon="-1.746394253">
  <ele>237.102295</ele>
  <time>2011-04-13T11:41:49Z</time>
</trkpt>
<trkpt lat="52.007563017" lon="-1.746593323">
  <ele>239.986206</ele>
  <time>2011-04-13T11:42:36Z</time>
</trkpt>
<trkpt lat="52.007585565" lon="-1.746816617">
  <ele>235.660278</ele>
  <time>2011-04-13T11:43:16Z</time>
</trkpt>
<trkpt lat="52.007560670" lon="-1.747047623">
  <ele>234.699097</ele>
  <time>2011-04-13T11:43:30Z</time>
</trkpt>
<trkpt lat="52.007543571" lon="-1.747338475">
  <ele>234.218384</ele>
  <time>2011-04-13T11:43:48Z</time>
</trkpt>
<trkpt lat="52.007594952" lon="-1.747622202">
  <ele>235.660278</ele>
  <time>2011-04-13T11:44:05Z</time>
</trkpt>
<trkpt lat="52.007597467" lon="-1.747911797">
  <ele>228.931152</ele>
  <time>2011-04-13T11:44:23Z</time>
</trkpt>
<trkpt lat="52.007602328" lon="-1.748221592">
  <ele>225.566528</ele>
  <time>2011-04-13T11:44:41Z</time>
</trkpt>
<trkpt lat="52.007634683" lon="-1.748517473">
  <ele>225.566528</ele>
  <time>2011-04-13T11:45:00Z</time>
</trkpt>
<trkpt lat="52.007675083" lon="-1.748744455">
  <ele>223.643799</ele>
  <time>2011-04-13T11:45:17Z</time>
</trkpt>
<trkpt lat="52.007694529" lon="-1.748894323">
  <ele>223.163208</ele>
  <time>2011-04-13T11:45:27Z</time>
</trkpt>
<trkpt lat="52.007724788" lon="-1.749046371">
  <ele>223.163208</ele>
  <time>2011-04-13T11:45:37Z</time>
</trkpt>
<trkpt lat="52.007746581" lon="-1.749319370">
  <ele>220.759888</ele>
  <time>2011-04-13T11:45:55Z</time>
</trkpt>
<trkpt lat="52.007747335" lon="-1.749561607">
  <ele>217.395386</ele>
  <time>2011-04-13T11:46:13Z</time>
</trkpt>
<trkpt lat="52.007787820" lon="-1.749658669">
  <ele>217.395386</ele>
  <time>2011-04-13T11:46:25Z</time>
</trkpt>
<trkpt lat="52.007822102" lon="-1.749747517">
  <ele>215.953247</ele>
  <time>2011-04-13T11:46:33Z</time>
</trkpt>
<trkpt lat="52.007831993" lon="-1.749769394">
  <ele>215.472656</ele>
  <time>2011-04-13T11:46:35Z</time>
</trkpt>
<trkpt lat="52.007857222" lon="-1.750044153">
  <ele>211.146729</ele>
  <time>2011-04-13T11:46:52Z</time>
</trkpt>
<trkpt lat="52.007877255" lon="-1.750212042">
  <ele>209.704834</ele>
  <time>2011-04-13T11:47:03Z</time>
</trkpt>
<trkpt lat="52.007889241" lon="-1.750390409">
  <ele>207.782104</ele>
  <time>2011-04-13T11:47:16Z</time>
</trkpt>
<trkpt lat="52.007922601" lon="-1.750725434">
  <ele>204.417480</ele>
  <time>2011-04-13T11:47:37Z</time>
</trkpt>
<trkpt lat="52.007955290" lon="-1.750951997">
  <ele>201.052856</ele>
  <time>2011-04-13T11:47:53Z</time>
</trkpt>
<trkpt lat="52.007959733" lon="-1.750990889">
  <ele>201.052856</ele>
  <time>2011-04-13T11:47:56Z</time>
</trkpt>
<trkpt lat="52.007968366" lon="-1.751126257">
  <ele>200.572266</ele>
  <time>2011-04-13T11:48:04Z</time>
</trkpt>
<trkpt lat="52.008041540" lon="-1.751282412">
  <ele>199.130127</ele>
  <time>2011-04-13T11:48:20Z</time>
</trkpt>
<trkpt lat="52.008165425" lon="-1.751404871">
  <ele>197.688232</ele>
  <time>2011-04-13T11:48:40Z</time>
</trkpt>
<trkpt lat="52.008283023" lon="-1.751515345">
  <ele>196.246338</ele>
  <time>2011-04-13T11:48:55Z</time>
</trkpt>
<trkpt lat="52.008430796" lon="-1.751624645">
  <ele>194.804321</ele>
  <time>2011-04-13T11:49:13Z</time>
</trkpt>
<trkpt lat="52.008540263" lon="-1.751785912">
  <ele>192.401123</ele>
  <time>2011-04-13T11:49:31Z</time>
</trkpt>
<trkpt lat="52.008556021" lon="-1.751804353">
  <ele>192.881714</ele>
  <time>2011-04-13T11:49:33Z</time>
</trkpt>
<trkpt lat="52.008597260" lon="-1.751874425">
  <ele>191.920288</ele>
  <time>2011-04-13T11:49:39Z</time>
</trkpt>
<trkpt lat="52.008610001" lon="-1.751920861">
  <ele>191.439575</ele>
  <time>2011-04-13T11:49:42Z</time>
</trkpt>
<trkpt lat="52.008746458" lon="-1.752177766">
  <ele>190.478394</ele>
  <time>2011-04-13T11:50:02Z</time>
</trkpt>
<trkpt lat="52.008885933" lon="-1.752421847">
  <ele>186.633179</ele>
  <time>2011-04-13T11:50:23Z</time>
</trkpt>
<trkpt lat="52.008996155" lon="-1.752592671">
  <ele>184.229858</ele>
  <time>2011-04-13T11:50:40Z</time>
</trkpt>
<trkpt lat="52.009080812" lon="-1.752798027">
  <ele>180.384521</ele>
  <time>2011-04-13T11:51:00Z</time>
</trkpt>
<trkpt lat="52.009154322" lon="-1.753021405">
  <ele>177.500610</ele>
  <time>2011-04-13T11:51:19Z</time>
</trkpt>
<trkpt lat="52.009268483" lon="-1.753227516">
  <ele>174.135864</ele>
  <time>2011-04-13T11:51:37Z</time>
</trkpt>
<trkpt lat="52.009343836" lon="-1.753340755">
  <ele>170.290649</ele>
  <time>2011-04-13T11:51:49Z</time>
</trkpt>
<trkpt lat="52.009379962" lon="-1.753392472">
  <ele>170.771362</ele>
  <time>2011-04-13T11:51:54Z</time>
</trkpt>
<trkpt lat="52.009505942" lon="-1.753575197">
  <ele>169.329468</ele>
  <time>2011-04-13T11:52:13Z</time>
</trkpt>
<trkpt lat="52.009791179" lon="-1.753872168">
  <ele>165.964722</ele>
  <time>2011-04-13T11:52:53Z</time>
</trkpt>
<trkpt lat="52.009850439" lon="-1.753970069">
  <ele>165.964722</ele>
  <time>2011-04-13T11:53:03Z</time>
</trkpt>
<trkpt lat="52.009877428" lon="-1.754181293">
  <ele>162.600098</ele>
  <time>2011-04-13T11:53:21Z</time>
</trkpt>
<trkpt lat="52.009768296" lon="-1.754195207">
  <ele>162.119507</ele>
  <time>2011-04-13T11:53:38Z</time>
</trkpt>
<trkpt lat="52.009787072" lon="-1.754305848">
  <ele>162.600098</ele>
  <time>2011-04-13T11:53:51Z</time>
</trkpt>
<trkpt lat="52.009870974" lon="-1.754512881">
  <ele>163.080811</ele>
  <time>2011-04-13T11:54:08Z</time>
</trkpt>
<trkpt lat="52.009940209" lon="-1.754760063">
  <ele>162.119507</ele>
  <time>2011-04-13T11:54:26Z</time>
</trkpt>
<trkpt lat="52.009988992" lon="-1.754973383">
  <ele>161.638916</ele>
  <time>2011-04-13T11:54:42Z</time>
</trkpt>
<trkpt lat="52.010009862" lon="-1.755209752">
  <ele>161.158203</ele>
  <time>2011-04-13T11:54:59Z</time>
</trkpt>
<trkpt lat="52.010036433" lon="-1.755407062">
  <ele>159.235474</ele>
  <time>2011-04-13T11:55:14Z</time>
</trkpt>
<trkpt lat="52.010024279" lon="-1.755587525">
  <ele>158.274170</ele>
  <time>2011-04-13T11:55:28Z</time>
</trkpt>
<trkpt lat="52.009993434" lon="-1.755713840">
  <ele>158.274170</ele>
  <time>2011-04-13T11:55:44Z</time>
</trkpt>
<trkpt lat="52.009936772" lon="-1.755884998">
  <ele>157.793579</ele>
  <time>2011-04-13T11:56:02Z</time>
</trkpt>
<trkpt lat="52.009958481" lon="-1.755934787">
  <ele>157.312866</ele>
  <time>2011-04-13T11:56:24Z</time>
</trkpt>
<trkpt lat="52.009968288" lon="-1.755937050">
  <ele>157.793579</ele>
  <time>2011-04-13T11:56:25Z</time>
</trkpt>
<trkpt lat="52.010063926" lon="-1.755976361">
  <ele>156.832153</ele>
  <time>2011-04-13T11:56:40Z</time>
</trkpt>
<trkpt lat="52.010175824" lon="-1.756020198">
  <ele>155.870972</ele>
  <time>2011-04-13T11:56:56Z</time>
</trkpt>
<trkpt lat="52.010253860" lon="-1.756039561">
  <ele>155.870972</ele>
  <time>2011-04-13T11:57:04Z</time>
</trkpt>
<trkpt lat="52.010384953" lon="-1.756127319">
  <ele>154.428955</ele>
  <time>2011-04-13T11:57:21Z</time>
</trkpt>
<trkpt lat="52.010537755" lon="-1.756248773">
  <ele>152.506348</ele>
  <time>2011-04-13T11:57:40Z</time>
</trkpt>
<trkpt lat="52.010640768" lon="-1.756336531">
  <ele>150.103027</ele>
  <time>2011-04-13T11:57:54Z</time>
</trkpt>
<trkpt lat="52.010721905" lon="-1.756397803">
  <ele>148.661011</ele>
  <time>2011-04-13T11:58:04Z</time>
</trkpt>
<trkpt lat="52.010751996" lon="-1.756387745">
  <ele>148.661011</ele>
  <time>2011-04-13T11:58:07Z</time>
</trkpt>
<trkpt lat="52.010927094" lon="-1.756379112">
  <ele>149.622314</ele>
  <time>2011-04-13T11:58:25Z</time>
</trkpt>
<trkpt lat="52.011082411" lon="-1.756441473">
  <ele>149.622314</ele>
  <time>2011-04-13T11:58:47Z</time>
</trkpt>
<trkpt lat="52.011083165" lon="-1.756432756">
  <ele>147.699707</ele>
  <time>2011-04-13T11:59:13Z</time>
</trkpt>
<trkpt lat="52.010882335" lon="-1.756255562">
  <ele>150.103027</ele>
  <time>2011-04-13T11:59:54Z</time>
</trkpt>
<trkpt lat="52.010893818" lon="-1.756115333">
  <ele>149.141602</ele>
  <time>2011-04-13T12:00:07Z</time>
</trkpt>
<trkpt lat="52.010963807" lon="-1.756018941">
  <ele>147.218994</ele>
  <time>2011-04-13T12:00:23Z</time>
</trkpt>
<trkpt lat="52.010997921" lon="-1.755970410">
  <ele>147.218994</ele>
  <time>2011-04-13T12:00:48Z</time>
</trkpt>
<trkpt lat="52.011061791" lon="-1.756104856">
  <ele>145.777100</ele>
  <time>2011-04-13T12:02:01Z</time>
</trkpt>
<trkpt lat="52.011079393" lon="-1.756181382">
  <ele>145.777100</ele>
  <time>2011-04-13T12:02:06Z</time>
</trkpt>
<trkpt lat="52.011148293" lon="-1.756237122">
  <ele>145.777100</ele>
  <time>2011-04-13T12:02:12Z</time>
</trkpt>
<trkpt lat="52.011162458" lon="-1.756418842">
  <ele>146.738403</ele>
  <time>2011-04-13T12:03:06Z</time>
</trkpt>
<trkpt lat="52.011192381" lon="-1.756462679">
  <ele>147.699707</ele>
  <time>2011-04-13T12:03:24Z</time>
</trkpt>
<trkpt lat="52.011325067" lon="-1.756999708">
  <ele>146.738403</ele>
  <time>2011-04-13T12:04:45Z</time>
</trkpt>
<trkpt lat="52.011311907" lon="-1.757231132">
  <ele>143.373657</ele>
  <time>2011-04-13T12:04:58Z</time>
</trkpt>
<trkpt lat="52.011289109" lon="-1.757373457">
  <ele>143.373657</ele>
  <time>2011-04-13T12:05:08Z</time>
</trkpt>
<trkpt lat="52.011280391" lon="-1.757426682">
  <ele>143.373657</ele>
  <time>2011-04-13T12:05:12Z</time>
</trkpt>
<trkpt lat="52.011316434" lon="-1.758405269">
  <ele>142.893066</ele>
  <time>2011-04-13T12:06:12Z</time>
</trkpt>
<trkpt lat="52.011390613" lon="-1.759322668">
  <ele>140.970459</ele>
  <time>2011-04-13T12:07:12Z</time>
</trkpt>
<trkpt lat="52.011410562" lon="-1.759532719">
  <ele>145.296387</ele>
  <time>2011-04-13T12:07:26Z</time>
</trkpt>
<trkpt lat="52.011515923" lon="-1.759941840">
  <ele>143.854370</ele>
  <time>2011-04-13T12:07:52Z</time>
</trkpt>
<trkpt lat="52.011553138" lon="-1.760100677">
  <ele>141.931763</ele>
  <time>2011-04-13T12:08:10Z</time>
</trkpt>
<trkpt lat="52.011718430" lon="-1.760308967">
  <ele>136.163940</ele>
  <time>2011-04-13T12:08:33Z</time>
</trkpt>
<trkpt lat="52.011729158" lon="-1.760319444">
  <ele>136.163940</ele>
  <time>2011-04-13T12:08:34Z</time>
</trkpt>
<trkpt lat="52.011803254" lon="-1.760473001">
  <ele>136.163940</ele>
  <time>2011-04-13T12:08:38Z</time>
</trkpt>
<trkpt lat="52.012078013" lon="-1.760419524">
  <ele>135.683105</ele>
  <time>2011-04-13T12:09:15Z</time>
</trkpt>
<trkpt lat="52.012295775" lon="-1.760302094">
  <ele>134.241211</ele>
  <time>2011-04-13T12:09:41Z</time>
</trkpt>
<trkpt lat="52.012509178" lon="-1.760306536">
  <ele>132.799316</ele>
  <time>2011-04-13T12:10:07Z</time>
</trkpt>
<trkpt lat="52.012696011" lon="-1.760391948">
  <ele>133.279907</ele>
  <time>2011-04-13T12:10:34Z</time>
</trkpt>
<trkpt lat="52.012906313" lon="-1.760408125">
  <ele>131.357300</ele>
  <time>2011-04-13T12:10:57Z</time>
</trkpt>
<trkpt lat="52.013047967" lon="-1.760398150">
  <ele>130.876709</ele>
  <time>2011-04-13T12:11:16Z</time>
</trkpt>
<trkpt lat="52.013228094" lon="-1.760302429">
  <ele>129.434692</ele>
  <time>2011-04-13T12:11:40Z</time>
</trkpt>
<trkpt lat="52.013390619" lon="-1.760223220">
  <ele>127.992554</ele>
  <time>2011-04-13T12:12:02Z</time>
</trkpt>
<trkpt lat="52.013461530" lon="-1.760175778">
  <ele>134.721924</ele>
  <time>2011-04-13T12:12:20Z</time>
</trkpt>
<trkpt lat="52.013547193" lon="-1.760099335">
  <ele>138.567261</ele>
  <time>2011-04-13T12:12:39Z</time>
</trkpt>
<trkpt lat="52.013623804" lon="-1.759950473">
  <ele>140.970459</ele>
  <time>2011-04-13T12:12:59Z</time>
</trkpt>
<trkpt lat="52.013773756" lon="-1.759741680">
  <ele>139.047852</ele>
  <time>2011-04-13T12:13:24Z</time>
</trkpt>
<trkpt lat="52.013926977" lon="-1.759520230">
  <ele>139.528442</ele>
  <time>2011-04-13T12:13:54Z</time>
</trkpt>
<trkpt lat="52.013899652" lon="-1.759408499">
  <ele>141.931763</ele>
  <time>2011-04-13T12:14:15Z</time>
</trkpt>
<trkpt lat="52.013804182" lon="-1.759351083">
  <ele>141.931763</ele>
  <time>2011-04-13T12:14:39Z</time>
</trkpt>
<trkpt lat="52.013740061" lon="-1.759236921">
  <ele>141.451050</ele>
  <time>2011-04-13T12:14:53Z</time>
</trkpt>
<trkpt lat="52.013689853" lon="-1.759129885">
  <ele>134.241211</ele>
  <time>2011-04-13T12:15:14Z</time>
</trkpt>
<trkpt lat="52.013687674" lon="-1.759114210">
  <ele>133.279907</ele>
  <time>2011-04-13T12:15:42Z</time>
</trkpt>
<trkpt lat="52.013676442" lon="-1.759063500">
  <ele>134.721924</ele>
  <time>2011-04-13T12:16:12Z</time>
</trkpt>
<trkpt lat="52.013693290" lon="-1.759009772">
  <ele>133.760498</ele>
  <time>2011-04-13T12:17:35Z</time>
</trkpt>
<trkpt lat="52.013636041" lon="-1.758918828">
  <ele>137.605835</ele>
  <time>2011-04-13T12:18:37Z</time>
</trkpt>
<trkpt lat="52.013633778" lon="-1.758936933">
  <ele>133.279907</ele>
  <time>2011-04-13T12:19:39Z</time>
</trkpt>
<trkpt lat="52.013791693" lon="-1.759183948">
  <ele>138.086548</ele>
  <time>2011-04-13T12:20:51Z</time>
</trkpt>
<trkpt lat="52.013837794" lon="-1.759350161">
  <ele>135.202515</ele>
  <time>2011-04-13T12:21:14Z</time>
</trkpt>
<trkpt lat="52.013782892" lon="-1.759318561">
  <ele>134.241211</ele>
  <time>2011-04-13T12:21:26Z</time>
</trkpt>
<trkpt lat="52.013748694" lon="-1.759372038">
  <ele>133.760498</ele>
  <time>2011-04-13T12:21:48Z</time>
</trkpt>
<trkpt lat="52.013833687" lon="-1.759329793">
  <ele>134.721924</ele>
  <time>2011-04-13T13:21:48Z</time>
</trkpt>
<trkpt lat="52.013784150" lon="-1.759203394">
  <ele>137.125244</ele>
  <time>2011-04-13T13:22:01Z</time>
</trkpt>
<trkpt lat="52.013716172" lon="-1.759095016">
  <ele>135.683105</ele>
  <time>2011-04-13T13:22:17Z</time>
</trkpt>
<trkpt lat="52.013695385" lon="-1.759103482">
  <ele>133.279907</ele>
  <time>2011-04-13T13:22:38Z</time>
</trkpt>
<trkpt lat="52.013727488" lon="-1.759104236">
  <ele>127.031372</ele>
  <time>2011-04-13T13:23:34Z</time>
</trkpt>
<trkpt lat="52.013735199" lon="-1.759123263">
  <ele>127.031372</ele>
  <time>2011-04-13T13:23:36Z</time>
</trkpt>
<trkpt lat="52.013945334" lon="-1.759471615">
  <ele>128.954102</ele>
  <time>2011-04-13T13:23:46Z</time>
</trkpt>
<trkpt lat="52.014035188" lon="-1.759764898">
  <ele>129.434692</ele>
  <time>2011-04-13T13:23:54Z</time>
</trkpt>
<trkpt lat="52.013728829" lon="-1.760275104">
  <ele>131.357300</ele>
  <time>2011-04-13T13:24:05Z</time>
</trkpt>
<trkpt lat="52.013743749" lon="-1.760554892">
  <ele>131.357300</ele>
  <time>2011-04-13T13:24:09Z</time>
</trkpt>
</trkseg>
</trk>
</gpx>
